createdAt,value
2022-11-02T07:38:45.190Z,99163.00
2022-11-02T07:41:13.627Z,99157.00
2022-11-02T07:43:44.139Z,99152.00
2022-11-02T07:46:14.288Z,99162.00
2022-11-02T07:48:42.543Z,99162.00
2022-11-02T07:51:11.378Z,99166.00
2022-11-02T07:53:39.722Z,99175.00
2022-11-02T07:56:09.435Z,99171.00
2022-11-02T07:58:37.659Z,99177.00
2022-11-02T08:01:05.994Z,99187.00
2022-11-02T08:03:34.110Z,99188.00
2022-11-02T08:06:03.009Z,99171.00
2022-11-02T08:08:31.719Z,99178.00
2022-11-02T08:11:04.826Z,99184.00
2022-11-02T08:13:34.219Z,99187.00
2022-11-02T08:16:04.744Z,99186.00
2022-11-02T08:18:33.158Z,99186.00
2022-11-02T08:21:01.552Z,99182.00
2022-11-02T08:23:29.758Z,99190.00
2022-11-02T08:26:02.396Z,99188.00
2022-11-02T08:28:32.408Z,99193.00
2022-11-02T08:31:04.093Z,99206.00
2022-11-02T08:33:34.020Z,99201.00
2022-11-02T08:36:02.974Z,99200.00
2022-11-02T08:38:31.250Z,99192.00
2022-11-02T08:40:59.339Z,99202.00
2022-11-02T08:43:27.402Z,99198.00
2022-11-02T08:46:16.531Z,99192.00
2022-11-02T08:48:52.429Z,99179.00
2022-11-02T08:51:23.298Z,99188.00
2022-11-02T08:53:52.092Z,99185.00
2022-11-02T08:56:20.672Z,99183.00
2022-11-02T08:58:53.932Z,99189.00
2022-11-02T09:01:22.047Z,99188.00
2022-11-02T09:03:51.562Z,99197.00
2022-11-02T09:06:19.657Z,99184.00
2022-11-02T09:08:51.719Z,99198.00
2022-11-02T09:11:21.145Z,99202.00
2022-11-02T09:13:54.145Z,99193.00
2022-11-02T09:16:24.844Z,99198.00
2022-11-02T09:18:54.818Z,99202.00
2022-11-02T09:21:23.222Z,99210.00
2022-11-02T09:23:51.488Z,99208.00
2022-11-02T09:26:19.897Z,99207.00
2022-11-02T09:28:48.092Z,99218.00
2022-11-02T09:31:16.341Z,99218.00
2022-11-02T09:33:46.433Z,99222.00
2022-11-02T09:36:16.595Z,99216.00
2022-11-02T09:38:53.797Z,99213.00
2022-11-02T09:41:24.314Z,99215.00
2022-11-02T09:43:56.928Z,99213.00
2022-11-02T09:46:27.858Z,99217.00
2022-11-02T09:48:57.502Z,99211.00
2022-11-02T09:51:29.542Z,99223.00
2022-11-02T09:54:02.423Z,99218.00
2022-11-02T09:56:31.137Z,99217.00
2022-11-02T09:59:00.939Z,99235.00
2022-11-02T10:01:50.221Z,99231.00
2022-11-02T10:04:48.184Z,99228.00
2022-11-02T10:07:22.806Z,99228.00
2022-11-02T10:09:53.807Z,99233.00
2022-11-02T10:12:24.690Z,99233.00
2022-11-02T10:14:59.878Z,99217.00
2022-11-02T10:17:29.620Z,99207.00
2022-11-02T10:19:58.975Z,99217.00
2022-11-02T10:22:33.786Z,99224.00
2022-11-02T10:25:02.239Z,99225.00
2022-11-02T10:27:39.234Z,99222.00
2022-11-02T10:30:10.369Z,99221.00
2022-11-02T10:32:40.148Z,99216.00
2022-11-02T10:38:18.234Z,99221.00
2022-11-02T10:40:57.390Z,99223.00
2022-11-02T10:43:33.313Z,99222.00
2022-11-02T10:46:12.451Z,99229.00
2022-11-02T10:48:52.803Z,99225.00
2022-11-02T10:51:25.028Z,99233.00
2022-11-02T10:53:54.937Z,99237.00
2022-11-02T10:56:24.345Z,99237.00
2022-11-02T10:58:57.193Z,99236.00
2022-11-02T11:01:27.767Z,99233.00
2022-11-02T11:04:00.187Z,99225.00
2022-11-02T11:06:29.939Z,99229.00
2022-11-02T11:09:04.329Z,99226.00
2022-11-02T11:11:34.195Z,99227.00
2022-11-02T11:16:54.167Z,99225.00
2022-11-02T11:19:40.528Z,99227.00
2022-11-02T11:22:25.226Z,99218.00
2022-11-02T11:24:54.725Z,99219.00
2022-11-02T11:27:22.956Z,99217.00
2022-11-02T11:29:53.740Z,99222.00
2022-11-02T11:32:29.794Z,99224.00
2022-11-02T11:35:00.563Z,99215.00
2022-11-02T11:37:28.677Z,99214.00
2022-11-02T11:39:59.928Z,99223.00
2022-11-02T11:42:30.080Z,99222.00
2022-11-02T11:45:00.686Z,99224.00
2022-11-02T11:47:30.244Z,99221.00
2022-11-02T11:50:14.222Z,99220.00
2022-11-02T11:52:44.095Z,99219.00
2022-11-02T11:55:26.799Z,99221.00
2022-11-02T11:58:25.318Z,99219.00
2022-11-02T12:01:17.758Z,99220.00
2022-11-02T12:03:53.316Z,99226.00
2022-11-02T12:06:25.289Z,99216.00
2022-11-02T12:09:04.090Z,99224.00
2022-11-02T12:11:43.889Z,99222.00
2022-11-02T12:14:21.697Z,99222.00
2022-11-02T12:17:01.010Z,99216.00
2022-11-02T12:19:34.214Z,99212.00
2022-11-02T12:22:05.245Z,99211.00
2022-11-02T12:24:51.569Z,99214.00
2022-11-02T12:27:30.844Z,99208.00
2022-11-02T12:30:12.141Z,99222.00
2022-11-02T12:32:53.813Z,99216.00
2022-11-02T12:35:30.421Z,99208.00
2022-11-02T12:38:10.424Z,99212.00
2022-11-02T12:40:45.486Z,99207.00
2022-11-02T12:43:24.610Z,99210.00
2022-11-02T12:45:55.272Z,99207.00
2022-11-02T12:48:26.067Z,99203.00
2022-11-02T12:50:57.469Z,99198.00
2022-11-02T12:53:44.560Z,99189.00
2022-11-02T12:56:15.199Z,99195.00
2022-11-02T12:58:44.795Z,99201.00
2022-11-02T13:01:16.263Z,99189.00
2022-11-02T13:03:50.461Z,99190.00
2022-11-02T13:06:21.190Z,99190.00
2022-11-02T13:08:51.523Z,99190.00
2022-11-02T13:11:21.947Z,99193.00
2022-11-02T13:13:52.346Z,99189.00
2022-11-02T13:16:27.028Z,99198.00
2022-11-02T13:19:01.124Z,99190.00
2022-11-02T13:21:33.399Z,99185.00
2022-11-02T13:24:01.653Z,99191.00
2022-11-02T13:26:30.401Z,99188.00
2022-11-02T13:29:07.185Z,99173.00
2022-11-02T13:31:37.197Z,99181.00
2022-11-02T13:34:07.362Z,99183.00
2022-11-02T13:36:38.740Z,99194.00
2022-11-02T13:39:09.844Z,99180.00
2022-11-02T13:41:48.426Z,99181.00
2022-11-02T13:44:35.207Z,99181.00
2022-11-02T13:47:21.136Z,99167.00
2022-11-02T13:49:51.041Z,99169.00
2022-11-02T13:52:20.460Z,99177.00
2022-11-02T13:54:52.242Z,99178.00
2022-11-02T13:57:26.149Z,99174.00
2022-11-02T13:59:55.883Z,99173.00
2022-11-02T14:02:24.432Z,99180.00
2022-11-02T14:04:52.863Z,99172.00
2022-11-02T14:07:23.363Z,99176.00
2022-11-02T14:09:58.020Z,99191.00
2022-11-02T14:12:30.861Z,99190.00
2022-11-02T14:15:32.216Z,99210.00
2022-11-02T14:18:09.125Z,99206.00
2022-11-02T14:20:39.196Z,99203.00
2022-11-02T14:23:35.374Z,99185.00
2022-11-02T14:26:03.563Z,99193.00
2022-11-02T14:28:33.139Z,99197.00
2022-11-02T14:31:17.629Z,99200.00
2022-11-02T14:34:00.290Z,99198.00
2022-11-02T14:36:39.282Z,99207.00
2022-11-02T14:39:13.833Z,99190.00
2022-11-02T14:42:15.085Z,99200.00
2022-11-02T14:45:06.723Z,99191.00
2022-11-02T14:47:35.662Z,99187.00
2022-11-02T14:50:08.958Z,99188.00
2022-11-02T14:52:37.233Z,99173.00
2022-11-02T14:55:07.118Z,99168.00
2022-11-02T14:57:36.430Z,99176.00
2022-11-02T15:00:07.398Z,99174.00
2022-11-02T15:02:40.340Z,99161.00
2022-11-02T15:05:24.031Z,99165.00
2022-11-02T15:07:54.936Z,99179.00
2022-11-02T15:10:43.650Z,99179.00
2022-11-02T15:13:36.274Z,99177.00
2022-11-02T15:16:25.888Z,99173.00
2022-11-02T15:18:56.044Z,99181.00
2022-11-02T15:21:30.283Z,99181.00
2022-11-02T15:24:15.486Z,99178.00
2022-11-02T15:26:50.662Z,99182.00
2022-11-02T15:29:32.439Z,99180.00
2022-11-02T15:32:01.113Z,99186.00
2022-11-02T15:34:33.294Z,99182.00
2022-11-02T15:37:03.612Z,99184.00
2022-11-02T15:39:32.100Z,99171.00
2022-11-02T15:42:04.453Z,99169.00
2022-11-02T15:44:56.157Z,99175.00
2022-11-02T15:47:29.045Z,99180.00
2022-11-02T15:50:04.960Z,99189.00
2022-11-02T15:53:16.580Z,99182.00
2022-11-02T15:55:39.707Z,99184.00
2022-11-02T15:58:12.097Z,99190.00
2022-11-02T16:00:40.473Z,99193.00
2022-11-02T16:03:09.946Z,99182.00
2022-11-02T16:05:43.872Z,99186.00
2022-11-02T16:08:24.654Z,99190.00
2022-11-02T16:10:54.573Z,99193.00
2022-11-02T16:13:23.952Z,99180.00
2022-11-02T16:16:05.698Z,99177.00
2022-11-02T16:18:38.220Z,99180.00
2022-11-02T16:21:07.114Z,99177.00
2022-11-02T16:23:38.185Z,99174.00
2022-11-02T16:26:09.452Z,99173.00
2022-11-02T16:28:38.198Z,99167.00
2022-11-02T16:31:16.123Z,99176.00
2022-11-02T16:33:47.826Z,99169.00
2022-11-02T16:36:16.868Z,99182.00
2022-11-02T16:38:52.910Z,99185.00
2022-11-02T16:41:21.173Z,99194.00
2022-11-02T16:43:50.625Z,99190.00
2022-11-02T16:46:18.945Z,99190.00
2022-11-02T16:49:13.295Z,99181.00
2022-11-02T16:51:41.652Z,99181.00
2022-11-02T16:54:26.824Z,99182.00
2022-11-02T16:56:55.067Z,99183.00
2022-11-02T16:59:23.915Z,99184.00
2022-11-02T17:01:52.306Z,99174.00
2022-11-02T17:04:22.658Z,99183.00
2022-11-02T17:06:51.681Z,99175.00
2022-11-02T17:09:26.095Z,99178.00
2022-11-02T17:11:54.791Z,99179.00
2022-11-02T17:14:23.126Z,99184.00
2022-11-02T17:17:02.868Z,99178.00
2022-11-02T17:19:46.796Z,99184.00
2022-11-02T17:22:18.595Z,99189.00
2022-11-02T17:24:48.339Z,99190.00
2022-11-02T17:27:24.939Z,99196.00
2022-11-02T17:29:54.750Z,99186.00
2022-11-02T17:32:22.962Z,99181.00
2022-11-02T17:34:51.909Z,99192.00
2022-11-02T17:37:27.068Z,99178.00
2022-11-02T17:39:57.241Z,99180.00
2022-11-02T17:42:43.030Z,99179.00
2022-11-02T17:45:24.663Z,99187.00
2022-11-02T17:47:53.085Z,99184.00
2022-11-02T17:50:21.470Z,99183.00
2022-11-02T17:52:50.895Z,99174.00
2022-11-02T17:55:21.623Z,99167.00
2022-11-02T17:57:50.150Z,99172.00
2022-11-02T18:00:18.961Z,99165.00
2022-11-02T18:02:49.280Z,99166.00
2022-11-02T18:05:22.858Z,99172.00
2022-11-02T18:07:51.722Z,99168.00
2022-11-02T18:10:22.537Z,99171.00
2022-11-02T18:12:52.045Z,99163.00
2022-11-02T18:15:21.538Z,99168.00
2022-11-02T18:17:50.182Z,99167.00
2022-11-02T18:20:18.787Z,99164.00
2022-11-02T18:22:47.206Z,99160.00
2022-11-02T18:25:16.531Z,99156.00
2022-11-02T18:27:46.792Z,99159.00
2022-11-02T18:30:17.221Z,99163.00
2022-11-02T18:32:46.485Z,99166.00
2022-11-02T18:35:16.146Z,99159.00
2022-11-02T18:37:46.262Z,99155.00
2022-11-02T18:40:15.906Z,99164.00
2022-11-02T18:42:44.869Z,99158.00
2022-11-02T18:45:15.888Z,99145.00
2022-11-02T18:47:44.337Z,99138.00
2022-11-02T18:50:14.172Z,99138.00
2022-11-02T18:52:49.033Z,99139.00
2022-11-02T18:55:20.977Z,99148.00
2022-11-02T18:57:50.966Z,99149.00
2022-11-02T19:00:21.538Z,99137.00
2022-11-02T19:02:49.955Z,99143.00
2022-11-02T19:05:36.361Z,99147.00
2022-11-02T19:08:22.302Z,99139.00
2022-11-02T19:10:51.533Z,99143.00
2022-11-02T19:13:23.511Z,99139.00
2022-11-02T19:16:00.494Z,99145.00
2022-11-02T19:18:29.934Z,99146.00
2022-11-02T19:20:59.290Z,99144.00
2022-11-02T19:23:30.034Z,99133.00
2022-11-02T19:25:58.584Z,99140.00
2022-11-02T19:28:27.333Z,99140.00
2022-11-02T19:30:57.630Z,99131.00
2022-11-02T19:33:26.929Z,99140.00
2022-11-02T19:35:56.878Z,99148.00
2022-11-02T19:38:25.605Z,99136.00
2022-11-02T19:41:02.337Z,99141.00
2022-11-02T19:43:31.295Z,99136.00
2022-11-02T19:46:05.755Z,99152.00
2022-11-02T19:48:36.308Z,99151.00
2022-11-02T19:51:09.361Z,99141.00
2022-11-02T19:53:37.941Z,99136.00
2022-11-02T19:56:07.299Z,99141.00
2022-11-02T19:58:36.147Z,99123.00
2022-11-02T20:01:10.465Z,99135.00
2022-11-02T20:03:39.290Z,99120.00
2022-11-02T20:06:09.287Z,99139.00
2022-11-02T20:08:37.502Z,99135.00
2022-11-02T20:11:06.469Z,99134.00
2022-11-02T20:13:35.707Z,99137.00
2022-11-02T20:16:09.364Z,99139.00
2022-11-02T20:18:40.454Z,99140.00
2022-11-02T20:21:09.987Z,99128.00
2022-11-02T20:23:40.462Z,99134.00
2022-11-02T20:26:11.000Z,99125.00
2022-11-02T20:28:40.242Z,99131.00
2022-11-02T20:31:11.916Z,99127.00
2022-11-02T20:33:42.151Z,99134.00
2022-11-02T20:36:11.801Z,99143.00
2022-11-02T20:38:40.209Z,99132.00
2022-11-02T20:41:11.168Z,99120.00
2022-11-02T20:43:41.033Z,99121.00
2022-11-02T20:46:35.917Z,99112.00
2022-11-02T20:49:13.744Z,99126.00
2022-11-02T20:51:49.675Z,99126.00
2022-11-02T20:54:19.940Z,99131.00
2022-11-02T20:56:48.593Z,99135.00
2022-11-02T20:59:17.474Z,99140.00
2022-11-02T21:01:46.210Z,99133.00
2022-11-02T21:04:21.228Z,99140.00
2022-11-02T21:06:49.962Z,99124.00
2022-11-02T21:09:18.977Z,99123.00
2022-11-02T21:12:04.877Z,99132.00
2022-11-02T21:14:32.951Z,99138.00
